Time;durP1;ratioP1;P1;durP2;ratioP2;P2;SDS_P1;SDS_P2;PMS_P1;PMS_P2;Temp;Humidity;BMP_temperature;BMP_pressure;BME280_temperature;BME280_humidity;BME280_pressure;Samples;Min_cycle;Max_cycle;Signal;HPM_P1;HPM_P2
2023/12/12 00:02:15;;;;;;;66.30;41.03;;;5.60;99.90;;;;;;5010812;28;20042;-81
2023/12/12 00:04:42;;;;;;;63.67;39.17;;;5.50;99.90;;;;;;5010122;28;20026;-81
2023/12/12 00:07:10;;;;;;;69.05;39.60;;;5.60;99.90;;;;;;5009928;28;20042;-84
2023/12/12 00:09:37;;;;;;;67.00;39.55;;;5.70;99.90;;;;;;5010432;28;20030;-87
2023/12/12 00:12:06;;;;;;;67.55;40.05;;;5.70;99.90;;;;;;5012300;28;20034;-84
2023/12/12 00:14:33;;;;;;;65.57;40.38;;;5.50;99.90;;;;;;5008926;28;20178;-81
2023/12/12 00:17:00;;;;;;;61.42;39.60;;;5.50;99.90;;;;;;5010212;28;20057;-81
2023/12/12 00:19:28;;;;;;;61.83;39.50;;;5.50;99.90;;;;;;5010633;28;20513;-83
2023/12/12 00:21:56;;;;;;;69.57;40.83;;;5.60;99.90;;;;;;5009632;28;20500;-82
2023/12/12 00:24:23;;;;;;;64.53;38.97;;;5.30;99.90;;;;;;5009663;28;20038;-78
2023/12/12 00:26:50;;;;;;;60.58;37.13;;;5.40;99.90;;;;;;5010248;28;20037;-79
2023/12/12 00:29:21;;;;;;;64.88;39.45;;;5.40;99.90;;;;;;5009793;28;20381;-80
2023/12/12 00:31:48;;;;;;;65.43;39.25;;;5.30;99.90;;;;;;5009996;28;20121;-79
2023/12/12 00:34:15;;;;;;;64.55;38.50;;;5.10;99.90;;;;;;5009642;28;20113;-80
2023/12/12 00:36:42;;;;;;;68.60;40.00;;;5.20;99.90;;;;;;5009954;28;20042;-80
2023/12/12 00:39:10;;;;;;;70.43;39.70;;;5.20;99.90;;;;;;5009546;28;20070;-81
2023/12/12 00:41:37;;;;;;;58.58;36.95;;;5.30;99.90;;;;;;5009404;28;20124;-82
2023/12/12 00:44:04;;;;;;;67.70;44.00;;;5.30;99.90;;;;;;5008251;28;20113;-81
2023/12/12 00:46:32;;;;;;;82.85;47.70;;;5.30;99.90;;;;;;5009998;28;20133;-80
2023/12/12 00:48:59;;;;;;;59.80;37.53;;;5.30;99.90;;;;;;4992323;28;20076;-80
2023/12/12 00:51:27;;;;;;;60.40;38.47;;;5.20;99.90;;;;;;5010295;28;20236;-81
2023/12/12 00:53:54;;;;;;;64.35;36.90;;;5.20;99.90;;;;;;5008542;28;20060;-80
2023/12/12 00:56:21;;;;;;;68.57;37.08;;;5.10;99.90;;;;;;5010371;28;20069;-78
2023/12/12 00:58:48;;;;;;;60.05;38.22;;;4.90;99.90;;;;;;5009292;28;20061;-81
2023/12/12 01:01:16;;;;;;;63.83;36.90;;;5.00;99.90;;;;;;5009928;28;20022;-78
2023/12/12 01:03:43;;;;;;;56.60;36.80;;;5.10;99.90;;;;;;5008760;28;20053;-77
2023/12/12 01:06:24;;;;;;;60.25;35.63;;;5.10;99.90;;;;;;5010217;28;20069;-76
2023/12/12 01:08:55;;;;;;;59.15;36.33;;;5.10;99.90;;;;;;5009280;28;20045;-76
2023/12/12 01:11:23;;;;;;;58.50;35.30;;;5.30;99.90;;;;;;5010405;28;20026;-76
2023/12/12 01:13:51;;;;;;;60.17;34.55;;;5.20;99.90;;;;;;5008752;28;20901;-76
2023/12/12 01:16:18;;;;;;;68.40;36.42;;;5.20;99.90;;;;;;4992409;28;20088;-76
2023/12/12 01:18:45;;;;;;;56.55;35.30;;;5.20;99.90;;;;;;5009122;28;20040;-81
2023/12/12 01:21:13;;;;;;;56.55;34.85;;;5.20;99.90;;;;;;5009494;28;20034;-81
2023/12/12 01:23:54;;;;;;;57.15;35.33;;;5.20;99.90;;;;;;5009414;28;20413;-78
2023/12/12 01:26:23;;;;;;;62.28;33.13;;;5.20;99.90;;;;;;5009534;28;20116;-83
2023/12/12 01:28:51;;;;;;;62.15;36.50;;;5.30;99.90;;;;;;4992013;28;20100;-83
2023/12/12 01:31:18;;;;;;;64.25;34.28;;;5.00;99.90;;;;;;4992953;28;20442;-83
2023/12/12 01:33:47;;;;;;;57.10;36.17;;;5.10;99.90;;;;;;4993205;28;20041;-82
2023/12/12 01:36:15;;;;;;;58.85;35.55;;;5.30;99.90;;;;;;5011508;28;20034;-82
2023/12/12 01:38:43;;;;;;;64.20;35.17;;;5.40;99.90;;;;;;5012729;28;20084;-85
2023/12/12 01:41:12;;;;;;;56.17;35.40;;;5.40;99.90;;;;;;5014179;28;20044;-82
2023/12/12 01:43:39;;;;;;;62.28;35.60;;;5.00;99.90;;;;;;5011945;28;20425;-82
2023/12/12 01:46:08;;;;;;;59.72;35.53;;;4.90;99.90;;;;;;5005420;28;20052;-79
2023/12/12 01:48:37;;;;;;;61.87;36.40;;;5.00;99.90;;;;;;4990983;28;20143;-80
2023/12/12 01:51:05;;;;;;;55.50;34.92;;;5.20;99.90;;;;;;5012414;28;20034;-83
2023/12/12 01:53:40;;;;;;;57.67;34.88;;;5.40;99.90;;;;;;5012139;28;20123;-81
2023/12/12 01:56:07;;;;;;;60.53;35.58;;;5.40;99.90;;;;;;5009556;28;20061;-83
2023/12/12 01:58:37;;;;;;;58.83;36.22;;;5.50;99.90;;;;;;5012086;28;20420;-82
2023/12/12 02:01:05;;;;;;;62.00;34.55;;;5.40;99.90;;;;;;4995830;28;20367;-84
2023/12/12 02:03:35;;;;;;;61.90;35.50;;;5.40;99.90;;;;;;5013629;28;20064;-80
2023/12/12 02:06:05;;;;;;;59.97;37.33;;;5.50;99.90;;;;;;4994480;28;20037;-81
2023/12/12 02:08:32;;;;;;;59.83;36.50;;;5.50;99.90;;;;;;5011705;28;20048;-80
2023/12/12 02:11:00;;;;;;;57.85;34.75;;;5.50;99.90;;;;;;5013069;28;20732;-80
2023/12/12 02:13:30;;;;;;;66.30;35.30;;;5.60;99.90;;;;;;5012368;28;20041;-81
2023/12/12 02:15:58;;;;;;;55.78;35.80;;;5.60;99.90;;;;;;4995137;28;20041;-80
2023/12/12 02:18:25;;;;;;;61.00;36.65;;;5.60;99.90;;;;;;5012619;28;20358;-80
2023/12/12 02:20:53;;;;;;;66.90;35.58;;;5.50;99.90;;;;;;4995375;28;20424;-81
2023/12/12 02:23:20;;;;;;;57.00;36.30;;;5.40;99.90;;;;;;4978746;28;20069;-80
2023/12/12 02:25:47;;;;;;;60.28;35.10;;;5.40;99.90;;;;;;5012007;28;20101;-79
2023/12/12 02:28:15;;;;;;;56.72;36.22;;;5.40;99.90;;;;;;5012439;28;20030;-81
2023/12/12 02:30:43;;;;;;;62.78;36.47;;;5.50;99.90;;;;;;4994309;28;20541;-77
2023/12/12 02:33:10;;;;;;;63.42;36.78;;;5.50;99.90;;;;;;5011768;28;20062;-77
2023/12/12 02:35:38;;;;;;;64.57;36.83;;;5.60;99.90;;;;;;5011678;28;20389;-77
2023/12/12 02:38:05;;;;;;;60.42;35.67;;;5.60;99.90;;;;;;5011841;28;20088;-78
2023/12/12 02:40:32;;;;;;;65.50;36.95;;;5.50;99.90;;;;;;4994448;28;20181;-78
2023/12/12 02:43:00;;;;;;;62.47;37.42;;;5.60;99.90;;;;;;5010949;28;20037;-77
2023/12/12 02:45:27;;;;;;;56.88;35.40;;;5.50;99.90;;;;;;5011389;28;20054;-79
2023/12/12 02:47:54;;;;;;;60.83;35.75;;;5.60;99.90;;;;;;5011813;28;20034;-79
2023/12/12 02:50:22;;;;;;;57.40;34.40;;;5.50;99.90;;;;;;5011801;28;20037;-79
2023/12/12 02:52:51;;;;;;;58.22;32.72;;;5.60;99.90;;;;;;5010010;28;20037;-77
2023/12/12 02:55:19;;;;;;;51.55;33.20;;;5.60;99.90;;;;;;5011457;28;20354;-78
2023/12/12 02:57:46;;;;;;;51.92;32.97;;;5.60;99.90;;;;;;5011460;28;20040;-83
2023/12/12 03:00:14;;;;;;;50.35;29.70;;;5.50;99.90;;;;;;5011451;28;20069;-81
2023/12/12 03:02:41;;;;;;;51.58;30.42;;;5.40;99.90;;;;;;5010278;28;20037;-80
2023/12/12 03:05:08;;;;;;;53.85;31.25;;;5.40;99.90;;;;;;4993613;28;20050;-86
2023/12/12 03:07:36;;;;;;;50.95;32.13;;;5.50;99.90;;;;;;5011812;28;20041;-82
2023/12/12 03:10:04;;;;;;;48.20;30.20;;;5.50;99.90;;;;;;5011464;28;20393;-81
2023/12/12 03:12:31;;;;;;;42.10;29.05;;;5.50;99.90;;;;;;5012081;28;20034;-79
2023/12/12 03:14:58;;;;;;;45.25;27.00;;;5.50;99.90;;;;;;4993871;28;20053;-81
2023/12/12 03:17:26;;;;;;;44.60;27.92;;;5.50;99.90;;;;;;5012468;28;20469;-83
2023/12/12 03:19:53;;;;;;;45.80;27.75;;;5.50;99.90;;;;;;5011799;28;20046;-78
2023/12/12 03:22:21;;;;;;;38.17;25.17;;;5.50;99.90;;;;;;5011318;28;20029;-83
2023/12/12 03:24:48;;;;;;;44.88;26.52;;;5.50;99.90;;;;;;4969707;28;20042;-82
2023/12/12 03:27:15;;;;;;;49.80;27.00;;;5.50;99.90;;;;;;5011326;28;20026;-83
2023/12/12 03:29:49;;;;;;;42.78;27.05;;;5.50;99.90;;;;;;4996315;28;20482;-84
2023/12/12 03:32:19;;;;;;;51.97;30.67;;;5.50;99.90;;;;;;5016446;28;20359;-84
2023/12/12 03:34:50;;;;;;;57.92;33.63;;;5.50;99.90;;;;;;5017954;28;20125;-85
2023/12/12 03:37:18;;;;;;;52.78;33.25;;;5.50;99.90;;;;;;4995758;28;20074;-80
2023/12/12 03:39:45;;;;;;;48.33;31.02;;;5.50;99.90;;;;;;5011151;28;20042;-82
2023/12/12 03:42:13;;;;;;;50.38;30.75;;;5.60;99.90;;;;;;5011352;28;20114;-77
2023/12/12 03:44:40;;;;;;;43.53;29.00;;;5.60;99.90;;;;;;5010438;28;20121;-80
2023/12/12 03:47:07;;;;;;;45.67;29.17;;;5.70;99.90;;;;;;5009885;28;20367;-80
2023/12/12 03:49:35;;;;;;;58.17;32.70;;;5.70;99.90;;;;;;5011017;28;20030;-81
2023/12/12 03:52:02;;;;;;;55.45;33.28;;;5.80;99.90;;;;;;4992990;28;20473;-82
2023/12/12 03:54:33;;;;;;;53.15;31.55;;;5.70;99.90;;;;;;4993754;28;20091;-83
2023/12/12 03:57:00;;;;;;;52.20;33.63;;;5.70;99.90;;;;;;5011133;28;20034;-82
2023/12/12 03:59:27;;;;;;;55.35;31.90;;;5.60;99.90;;;;;;5011093;28;20064;-85
2023/12/12 04:01:55;;;;;;;51.58;32.08;;;5.40;99.90;;;;;;5010712;28;20413;-80
2023/12/12 04:04:22;;;;;;;49.92;31.83;;;5.30;99.90;;;;;;5010795;28;20469;-80
2023/12/12 04:06:49;;;;;;;50.85;32.15;;;5.20;99.90;;;;;;5010983;28;20030;-81
2023/12/12 04:09:19;;;;;;;50.05;30.65;;;5.20;99.90;;;;;;5009872;28;20381;-79
2023/12/12 04:11:47;;;;;;;49.00;29.83;;;5.20;99.90;;;;;;4976560;28;20239;-79
2023/12/12 04:14:14;;;;;;;54.78;29.52;;;5.10;99.90;;;;;;5010568;28;20088;-80
2023/12/12 04:16:41;;;;;;;39.75;28.08;;;5.30;99.90;;;;;;5009949;28;20034;-80
2023/12/12 04:19:09;;;;;;;46.78;28.58;;;5.20;99.90;;;;;;4975767;28;20048;-75
2023/12/12 04:21:36;;;;;;;48.20;29.35;;;5.20;99.90;;;;;;4990132;28;20034;-79
2023/12/12 04:24:04;;;;;;;44.78;28.17;;;5.20;99.90;;;;;;5010836;28;20355;-79
2023/12/12 04:26:31;;;;;;;42.08;28.17;;;5.30;99.90;;;;;;5010648;28;20046;-81
2023/12/12 04:28:59;;;;;;;45.85;28.80;;;5.30;99.90;;;;;;5009873;28;20041;-76
2023/12/12 04:31:26;;;;;;;46.55;29.23;;;5.10;99.90;;;;;;5010354;28;20092;-78
2023/12/12 04:33:54;;;;;;;53.80;29.77;;;5.10;99.90;;;;;;4991940;28;20560;-79
2023/12/12 04:36:21;;;;;;;46.13;28.73;;;5.20;99.90;;;;;;5010392;28;20038;-78
2023/12/12 04:38:48;;;;;;;47.10;29.60;;;5.20;99.90;;;;;;5009952;28;20433;-78
2023/12/12 04:41:15;;;;;;;47.67;28.70;;;5.20;99.90;;;;;;5010273;28;20030;-77
2023/12/12 04:43:43;;;;;;;50.28;30.20;;;5.10;99.90;;;;;;5009742;28;20045;-78
2023/12/12 04:46:20;;;;;;;55.80;29.90;;;5.10;99.90;;;;;;5005485;28;20088;-79
2023/12/12 04:48:48;;;;;;;51.45;30.70;;;5.20;99.90;;;;;;5007884;28;20648;-78
2023/12/12 04:51:15;;;;;;;50.75;30.00;;;5.30;99.90;;;;;;5008934;28;20038;-78
2023/12/12 04:53:43;;;;;;;47.33;29.10;;;5.40;99.90;;;;;;5009069;28;20097;-78
2023/12/12 04:56:10;;;;;;;44.53;29.55;;;5.50;99.90;;;;;;5005752;28;20037;-79
2023/12/12 04:58:37;;;;;;;43.10;27.85;;;5.60;99.90;;;;;;5009387;28;20151;-80
2023/12/12 05:01:05;;;;;;;44.70;29.17;;;5.50;99.90;;;;;;5010178;28;20132;-80
2023/12/12 05:03:32;;;;;;;52.08;30.27;;;5.40;99.90;;;;;;5009154;28;20065;-78
2023/12/12 05:06:00;;;;;;;50.03;28.92;;;5.40;99.90;;;;;;5009648;28;20389;-79
2023/12/12 05:08:28;;;;;;;50.15;29.55;;;5.50;99.90;;;;;;5013203;28;20902;-77
2023/12/12 05:10:55;;;;;;;48.17;30.10;;;5.50;99.90;;;;;;5008937;28;20044;-79
2023/12/12 05:13:23;;;;;;;50.53;29.13;;;5.40;99.90;;;;;;5013454;28;20050;-78
2023/12/12 05:15:50;;;;;;;44.17;28.50;;;5.50;99.90;;;;;;5012939;28;20474;-79
2023/12/12 05:18:18;;;;;;;44.17;28.58;;;5.50;99.90;;;;;;4992265;28;20042;-79
2023/12/12 05:20:46;;;;;;;47.80;28.50;;;5.50;99.90;;;;;;5012979;28;20040;-82
2023/12/12 05:23:13;;;;;;;44.25;28.70;;;5.50;99.90;;;;;;5009148;28;20034;-80
2023/12/12 05:25:41;;;;;;;45.65;29.75;;;5.30;99.90;;;;;;5012590;28;20433;-79
2023/12/12 05:28:08;;;;;;;51.33;28.98;;;5.30;99.90;;;;;;5013088;28;20111;-78
2023/12/12 05:30:36;;;;;;;45.85;28.05;;;5.20;99.90;;;;;;5010820;28;20397;-82
2023/12/12 05:33:06;;;;;;;;;;;5.20;99.90;;;;;;5013088;28;20101;-78
2023/12/12 05:35:33;;;;;;;42.50;24.92;;;5.20;99.90;;;;;;5011835;28;19917;-80
2023/12/12 05:38:03;;;;;;;39.33;26.20;;;5.30;99.90;;;;;;5007149;28;20092;-82
2023/12/12 05:40:30;;;;;;;46.28;27.40;;;5.20;99.90;;;;;;5010825;28;20420;-77
2023/12/12 05:42:58;;;;;;;39.17;25.17;;;5.20;99.90;;;;;;5009739;28;20046;-76
2023/12/12 05:45:26;;;;;;;38.42;25.20;;;4.80;99.90;;;;;;5009390;28;20060;-77
2023/12/12 05:47:53;;;;;;;40.85;24.92;;;4.90;99.90;;;;;;5010564;28;20045;-79
2023/12/12 05:50:21;;;;;;;42.88;25.73;;;4.90;99.90;;;;;;5011251;28;20033;-82
2023/12/12 05:52:50;;;;;;;44.38;24.65;;;5.00;99.90;;;;;;5008854;28;20068;-79
2023/12/12 05:55:18;;;;;;;38.57;25.90;;;5.00;99.90;;;;;;4990998;28;20141;-81
2023/12/12 05:57:45;;;;;;;38.17;24.45;;;5.10;99.90;;;;;;4991928;28;20192;-81
2023/12/12 06:00:13;;;;;;;37.88;24.70;;;5.10;99.90;;;;;;5012346;28;20092;-78
2023/12/12 06:02:40;;;;;;;40.22;26.05;;;5.20;99.90;;;;;;5012129;28;20040;-82
2023/12/12 06:05:08;;;;;;;41.00;25.70;;;5.30;99.90;;;;;;4994864;28;20104;-79
2023/12/12 06:07:37;;;;;;;42.92;25.67;;;5.40;99.90;;;;;;5010642;28;20056;-78
2023/12/12 06:10:06;;;;;;;41.50;24.90;;;5.50;99.90;;;;;;4996180;28;20036;-79
2023/12/12 06:12:34;;;;;;;40.83;25.48;;;5.60;99.90;;;;;;5011191;28;20042;-76
2023/12/12 06:15:02;;;;;;;43.85;25.73;;;5.60;99.90;;;;;;5011905;28;20038;-83
2023/12/12 06:17:30;;;;;;;63.67;37.55;;;5.70;99.90;;;;;;5012180;28;20030;-75
2023/12/12 06:19:57;;;;;;;57.38;32.58;;;5.90;99.90;;;;;;5011853;28;20497;-86
2023/12/12 06:22:24;;;;;;;54.00;29.58;;;5.90;99.90;;;;;;5014648;28;20026;-84
2023/12/12 06:24:52;;;;;;;186.82;93.00;;;5.70;99.90;;;;;;5013590;28;20044;-82
2023/12/12 06:27:19;;;;;;;66.57;39.75;;;5.70;99.90;;;;;;5011628;28;20425;-81
2023/12/12 06:29:51;;;;;;;50.67;30.25;;;5.80;99.90;;;;;;5008784;28;20477;-80
2023/12/12 06:32:19;;;;;;;42.00;28.02;;;5.80;99.90;;;;;;5010020;28;20119;-81
2023/12/12 06:34:46;;;;;;;38.67;26.38;;;5.60;99.90;;;;;;5007048;28;20064;-83
2023/12/12 06:37:14;;;;;;;42.13;28.08;;;5.40;99.90;;;;;;4992314;28;20037;-82
2023/12/12 06:39:41;;;;;;;42.17;28.08;;;5.30;99.90;;;;;;5009338;28;20038;-83
2023/12/12 06:42:08;;;;;;;46.13;27.20;;;5.20;99.90;;;;;;4977279;28;20159;-82
2023/12/12 06:44:37;;;;;;;38.88;24.63;;;5.30;99.90;;;;;;5012902;28;20053;-83
2023/12/12 06:47:05;;;;;;;43.53;27.02;;;5.30;99.90;;;;;;4994080;28;20038;-87
2023/12/12 06:49:33;;;;;;;47.05;25.08;;;5.40;99.90;;;;;;5011771;28;20065;-82
2023/12/12 06:52:03;;;;;;;43.50;25.63;;;5.50;99.90;;;;;;5011904;28;20062;-84
2023/12/12 06:54:30;;;;;;;44.97;27.58;;;5.70;99.90;;;;;;5011339;28;20037;-80
2023/12/12 06:56:58;;;;;;;38.40;25.52;;;5.90;99.90;;;;;;4993000;28;20041;-82
2023/12/12 06:59:25;;;;;;;37.05;24.88;;;5.80;99.90;;;;;;5011735;28;20084;-80
2023/12/12 07:01:53;;;;;;;42.95;28.90;;;5.70;99.90;;;;;;4994113;28;20046;-80
2023/12/12 07:04:21;;;;;;;42.05;26.17;;;5.60;99.90;;;;;;5010904;28;20541;-80
2023/12/12 07:06:48;;;;;;;46.22;28.65;;;5.70;99.90;;;;;;5010956;28;20030;-79
2023/12/12 07:09:16;;;;;;;46.15;29.60;;;5.80;99.90;;;;;;5011549;28;20036;-79
2023/12/12 07:11:44;;;;;;;49.22;32.03;;;6.00;99.90;;;;;;5011002;28;20030;-82
2023/12/12 07:14:11;;;;;;;50.38;32.03;;;6.00;99.90;;;;;;5012159;28;20104;-80
2023/12/12 07:16:40;;;;;;;55.10;30.75;;;6.10;99.90;;;;;;5011207;28;20038;-78
2023/12/12 07:19:07;;;;;;;45.75;29.20;;;6.30;99.90;;;;;;5012014;28;20367;-73
2023/12/12 07:21:39;;;;;;;48.78;29.63;;;6.30;99.90;;;;;;5011449;28;20041;-81
2023/12/12 07:24:07;;;;;;;43.80;29.92;;;6.50;99.90;;;;;;4991825;28;20117;-82
2023/12/12 07:26:34;;;;;;;46.97;28.75;;;6.60;99.90;;;;;;4991360;28;20107;-82
2023/12/12 07:29:01;;;;;;;42.65;28.55;;;6.40;99.90;;;;;;5009244;28;20076;-80
2023/12/12 07:31:29;;;;;;;45.42;29.00;;;6.30;99.90;;;;;;5008540;28;20121;-81
2023/12/12 07:33:56;;;;;;;44.33;28.58;;;6.30;99.90;;;;;;5009566;28;20409;-82
2023/12/12 07:36:24;;;;;;;51.20;29.35;;;6.20;99.90;;;;;;5010033;28;20096;-78
2023/12/12 07:38:51;;;;;;;49.42;29.02;;;6.30;99.90;;;;;;5008452;28;20037;-83
2023/12/12 07:41:19;;;;;;;42.53;28.55;;;6.40;99.90;;;;;;5009884;28;20408;-79
2023/12/12 07:43:46;;;;;;;44.60;28.30;;;6.50;99.90;;;;;;5010020;28;20046;-80
2023/12/12 07:46:13;;;;;;;43.95;28.30;;;6.70;99.90;;;;;;5002280;28;20034;-81
2023/12/12 07:48:40;;;;;;;42.17;27.90;;;6.80;99.90;;;;;;5009805;28;20046;-81
2023/12/12 07:51:10;;;;;;;44.33;26.95;;;6.90;99.90;;;;;;5010852;28;20484;-79
2023/12/12 07:53:37;;;;;;;51.17;28.33;;;6.90;99.90;;;;;;4992387;28;20481;-81
2023/12/12 07:56:05;;;;;;;46.22;29.05;;;6.90;99.90;;;;;;5011101;28;20056;-81
2023/12/12 07:58:33;;;;;;;45.45;29.85;;;6.90;99.90;;;;;;5010619;28;20444;-81
2023/12/12 08:01:00;;;;;;;44.90;28.75;;;6.90;99.90;;;;;;5009949;28;20497;-81
2023/12/12 08:03:27;;;;;;;49.25;30.70;;;6.80;99.90;;;;;;5009663;28;20068;-81
2023/12/12 08:05:54;;;;;;;47.78;30.30;;;6.80;99.90;;;;;;5010600;28;20037;-80
2023/12/12 08:08:22;;;;;;;53.05;31.48;;;6.70;99.90;;;;;;5010195;28;20042;-80
2023/12/12 08:10:50;;;;;;;55.47;31.48;;;6.70;99.90;;;;;;4992594;28;20049;-80
2023/12/12 08:13:17;;;;;;;52.83;32.38;;;6.70;99.90;;;;;;5010452;28;20084;-81
2023/12/12 08:15:45;;;;;;;48.05;30.95;;;7.00;99.90;;;;;;5010410;28;20133;-80
2023/12/12 08:18:12;;;;;;;47.97;30.17;;;7.30;99.90;;;;;;5009864;28;20085;-78
2023/12/12 08:20:40;;;;;;;44.38;29.02;;;7.40;99.90;;;;;;5010278;28;20124;-79
2023/12/12 08:23:07;;;;;;;50.45;30.58;;;7.60;99.90;;;;;;5009828;28;20041;-79
2023/12/12 08:25:34;;;;;;;50.08;29.05;;;7.80;99.90;;;;;;5010794;28;20046;-81
2023/12/12 08:28:03;;;;;;;50.65;31.40;;;7.90;99.60;;;;;;5010159;28;20037;-78
2023/12/12 08:30:30;;;;;;;53.17;34.90;;;7.90;99.50;;;;;;5009868;28;20127;-80
2023/12/12 08:32:57;;;;;;;53.65;33.03;;;7.90;99.50;;;;;;5009172;28;20037;-80
2023/12/12 08:35:25;;;;;;;48.42;33.60;;;8.00;99.50;;;;;;5010247;28;20095;-80
2023/12/12 08:37:53;;;;;;;54.90;33.95;;;8.10;99.30;;;;;;5009701;28;20058;-79
2023/12/12 08:40:20;;;;;;;55.58;34.13;;;8.30;99.10;;;;;;5009756;28;20046;-81
2023/12/12 08:42:48;;;;;;;47.38;31.63;;;8.50;99.10;;;;;;5013133;28;20041;-80
2023/12/12 08:45:15;;;;;;;57.90;32.00;;;8.60;98.50;;;;;;4992416;28;20132;-82
2023/12/12 08:47:42;;;;;;;49.55;30.92;;;8.60;98.20;;;;;;5013644;28;20029;-80
2023/12/12 08:50:10;;;;;;;50.95;29.38;;;8.70;98.20;;;;;;4996677;28;20081;-81
2023/12/12 08:52:38;;;;;;;49.17;28.00;;;8.90;98.00;;;;;;5013975;28;20060;-81
2023/12/12 08:55:08;;;;;;;48.58;27.95;;;9.10;97.80;;;;;;5013749;28;20049;-80
2023/12/12 08:57:36;;;;;;;;;;;9.30;97.00;;;;;;5014581;28;20117;-78
2023/12/12 09:00:05;;;;;;;54.63;26.63;;;9.30;97.10;;;;;;5013589;28;19918;-81
2023/12/12 09:02:32;;;;;;;54.08;27.63;;;9.00;96.60;;;;;;5013989;28;20049;-79
2023/12/12 09:04:59;;;;;;;57.53;31.30;;;9.30;97.30;;;;;;5013614;28;20152;-82
2023/12/12 09:07:27;;;;;;;52.95;27.45;;;9.50;96.40;;;;;;5011445;28;20038;-80
2023/12/12 09:09:54;;;;;;;55.83;28.25;;;9.60;96.50;;;;;;4996134;28;20104;-80
2023/12/12 09:12:22;;;;;;;61.63;30.30;;;9.70;96.20;;;;;;5013783;28;20073;-80
2023/12/12 09:14:49;;;;;;;50.05;27.52;;;9.40;95.90;;;;;;4995459;28;20045;-79
2023/12/12 09:17:17;;;;;;;49.67;28.67;;;9.30;96.60;;;;;;4996333;28;20096;-77
2023/12/12 09:19:44;;;;;;;55.83;30.58;;;9.50;96.60;;;;;;5012571;28;20041;-79
2023/12/12 09:22:11;;;;;;;56.63;29.25;;;9.60;96.30;;;;;;5013357;28;20198;-79
2023/12/12 09:24:39;;;;;;;60.15;30.70;;;10.00;95.80;;;;;;5012963;28;20076;-80
2023/12/12 09:27:06;;;;;;;58.15;30.60;;;10.00;95.10;;;;;;5013850;28;20157;-80
2023/12/12 09:29:35;;;;;;;55.28;31.00;;;10.20;95.50;;;;;;5012852;28;20412;-79
2023/12/12 09:32:02;;;;;;;66.15;33.17;;;10.60;95.20;;;;;;4979571;28;20050;-79
2023/12/12 09:34:29;;;;;;;62.35;33.13;;;11.00;94.60;;;;;;5013430;28;20125;-81
2023/12/12 09:36:57;;;;;;;58.53;31.90;;;11.20;94.20;;;;;;4995366;28;20042;-79
2023/12/12 09:39:24;;;;;;;57.75;29.65;;;11.60;93.80;;;;;;5013131;28;20037;-79
2023/12/12 09:41:53;;;;;;;54.22;29.15;;;11.80;93.40;;;;;;5012793;28;20469;-79
2023/12/12 09:44:20;;;;;;;53.08;28.17;;;12.00;92.80;;;;;;5012895;28;20042;-81
2023/12/12 09:46:49;;;;;;;51.75;29.17;;;12.30;92.50;;;;;;5012682;28;20029;-78
2023/12/12 09:49:18;;;;;;;52.22;28.75;;;12.60;92.10;;;;;;5008440;28;20037;-80
2023/12/12 09:51:51;;;;;;;46.92;27.75;;;12.40;92.00;;;;;;4990998;28;20382;-80
2023/12/12 09:54:18;;;;;;;56.15;27.10;;;12.40;91.80;;;;;;5013233;28;20034;-80
2023/12/12 09:56:48;;;;;;;51.25;26.40;;;12.40;91.70;;;;;;5012579;28;20117;-82
2023/12/12 09:59:16;;;;;;;40.25;21.42;;;12.40;91.50;;;;;;5013036;28;20136;-80
2023/12/12 10:01:46;;;;;;;38.05;22.15;;;12.40;91.10;;;;;;5012834;28;20389;-80
2023/12/12 10:04:17;;;;;;;45.28;23.05;;;12.60;90.50;;;;;;5012349;28;20040;-81
2023/12/12 10:07:05;;;;;;;42.17;23.27;;;12.80;90.40;;;;;;5011332;28;20457;-80
2023/12/12 10:09:33;;;;;;;48.28;23.30;;;13.20;89.80;;;;;;4994626;28;20129;-81
2023/12/12 10:12:00;;;;;;;47.55;25.67;;;13.30;88.80;;;;;;5012173;28;20045;-80
2023/12/12 10:14:38;;;;;;;57.15;31.40;;;13.60;89.50;;;;;;5010327;28;20034;-82
2023/12/12 10:17:06;;;;;;;48.92;27.83;;;13.60;88.80;;;;;;5011965;28;20041;-77
2023/12/12 10:19:34;;;;;;;44.72;23.92;;;13.60;87.50;;;;;;5012237;28;20044;-81
2023/12/12 10:22:06;;;;;;;44.20;25.77;;;13.50;87.60;;;;;;4994859;28;20049;-80
2023/12/12 10:24:37;;;;;;;42.10;24.08;;;13.80;87.10;;;;;;5012257;28;20037;-80
2023/12/12 10:27:08;;;;;;;44.03;24.35;;;13.80;86.10;;;;;;5012495;28;20057;-81
2023/12/12 10:29:37;;;;;;;41.53;24.47;;;14.00;85.70;;;;;;4994532;28;20116;-78
2023/12/12 10:32:05;;;;;;;43.45;24.08;;;14.50;88.20;;;;;;4993730;28;20121;-76
2023/12/12 10:34:32;;;;;;;42.67;22.77;;;14.90;88.40;;;;;;5011975;28;20360;-77
2023/12/12 10:37:01;;;;;;;47.08;24.08;;;15.50;86.70;;;;;;5011056;28;20059;-77
2023/12/12 10:39:32;;;;;;;43.80;24.42;;;15.70;84.40;;;;;;5008519;28;20026;-79
2023/12/12 10:41:59;;;;;;;42.47;22.48;;;15.90;82.20;;;;;;5010203;28;20045;-77
2023/12/12 10:44:32;;;;;;;43.20;24.38;;;16.00;83.80;;;;;;5009504;28;20401;-78
2023/12/12 10:47:03;;;;;;;44.20;22.75;;;16.20;80.60;;;;;;5009658;28;20100;-77
2023/12/12 10:49:32;;;;;;;43.53;24.67;;;16.50;80.40;;;;;;4992400;28;20469;-78
2023/12/12 10:52:03;;;;;;;45.10;24.83;;;16.00;77.70;;;;;;4988638;28;20045;-78
2023/12/12 10:54:35;;;;;;;38.10;24.38;;;15.30;79.90;;;;;;5010779;28;20037;-80
2023/12/12 10:57:03;;;;;;;45.83;23.37;;;15.90;78.60;;;;;;5012085;28;20156;-81
2023/12/12 10:59:32;;;;;;;40.63;23.52;;;20.50;72.90;;;;;;5009099;28;20037;-79
2023/12/12 11:02:20;;;;;;;40.95;23.27;;;25.00;61.20;;;;;;5008238;28;20063;-80
2023/12/12 11:04:47;;;;;;;40.53;23.85;;;27.40;54.60;;;;;;5009607;28;20473;-77
2023/12/12 11:07:15;;;;;;;37.33;22.58;;;27.80;50.90;;;;;;5014745;28;20042;-79
2023/12/12 11:09:43;;;;;;;36.95;23.25;;;26.70;49.40;;;;;;5010985;28;20084;-79
2023/12/12 11:12:12;;;;;;;44.97;22.70;;;27.70;48.80;;;;;;5011298;28;20060;-76
2023/12/12 11:14:40;;;;;;;36.67;22.65;;;28.30;48.10;;;;;;5011162;28;20034;-78
2023/12/12 11:17:09;;;;;;;33.47;21.17;;;28.40;47.60;;;;;;5010686;28;20034;-77
2023/12/12 11:19:37;;;;;;;;;;;28.80;46.70;;;;;;5008943;28;20038;-77
2023/12/12 11:22:04;;;;;;;29.23;17.95;;;27.40;47.10;;;;;;5009445;28;19977;-80
2023/12/12 11:24:59;;;;;;;29.00;19.23;;;28.10;45.80;;;;;;4992458;28;20041;-77
2023/12/12 11:27:28;;;;;;;27.40;18.92;;;28.20;45.60;;;;;;5006849;28;20044;-83
2023/12/12 11:29:55;;;;;;;26.50;19.40;;;28.70;45.00;;;;;;5012030;28;20388;-77
2023/12/12 11:32:24;;;;;;;26.17;19.05;;;28.50;44.90;;;;;;5011152;28;20069;-81
2023/12/12 11:34:51;;;;;;;26.97;17.90;;;27.30;44.60;;;;;;5010406;28;20571;-82
2023/12/12 11:37:19;;;;;;;29.52;18.55;;;27.50;45.40;;;;;;5007372;28;20697;-78
2023/12/12 11:39:52;;;;;;;29.83;17.77;;;28.10;44.80;;;;;;5010502;28;20029;-80
2023/12/12 11:42:24;;;;;;;29.70;17.48;;;27.90;44.70;;;;;;5010279;28;20448;-78
2023/12/12 11:44:55;;;;;;;25.90;16.42;;;28.00;44.40;;;;;;4985741;28;20397;-76
2023/12/12 11:47:25;;;;;;;24.13;15.25;;;27.60;44.40;;;;;;5011040;28;20418;-79
2023/12/12 11:50:12;;;;;;;25.60;14.40;;;25.40;46.10;;;;;;4991668;28;20456;-76
2023/12/12 11:52:39;;;;;;;24.58;13.05;;;23.00;49.30;;;;;;5010959;28;20037;-74
2023/12/12 11:55:10;;;;;;;15.80;10.77;;;21.20;51.90;;;;;;5011832;28;20494;-77
2023/12/12 11:57:37;;;;;;;16.88;10.00;;;19.80;53.50;;;;;;4991542;28;20034;-73
2023/12/12 12:00:06;;;;;;;15.90;9.82;;;18.90;54.20;;;;;;5011693;28;20057;-73
2023/12/12 12:02:33;;;;;;;19.83;11.48;;;17.70;56.10;;;;;;5011220;28;20045;-78
2023/12/12 12:05:01;;;;;;;25.25;11.82;;;17.50;57.30;;;;;;4992744;28;20478;-71
2023/12/12 12:07:28;;;;;;;23.65;13.00;;;17.80;57.00;;;;;;5009451;28;20058;-75
2023/12/12 12:09:56;;;;;;;24.45;14.18;;;18.10;56.70;;;;;;5009512;28;21432;-74
2023/12/12 12:12:23;;;;;;;20.73;13.73;;;17.40;57.80;;;;;;5009976;28;20042;-77
2023/12/12 12:14:50;;;;;;;22.27;13.77;;;17.70;57.80;;;;;;5005619;28;20034;-75
2023/12/12 12:17:18;;;;;;;26.55;15.00;;;18.40;57.90;;;;;;5011704;28;20389;-74
2023/12/12 12:19:45;;;;;;;24.17;14.15;;;21.70;53.50;;;;;;5009622;28;20121;-71
2023/12/12 12:22:13;;;;;;;21.08;14.15;;;25.30;49.70;;;;;;5009714;28;20103;-76
2023/12/12 12:24:45;;;;;;;20.83;12.35;;;26.10;46.90;;;;;;5008985;28;20117;-73
2023/12/12 12:27:15;;;;;;;17.98;10.80;;;25.40;45.30;;;;;;5009093;28;20133;-70
2023/12/12 12:30:00;;;;;;;17.58;11.52;;;25.20;44.90;;;;;;5008829;28;20038;-75
2023/12/12 12:32:28;;;;;;;17.00;11.48;;;25.40;45.70;;;;;;5004764;28;20710;-71
2023/12/12 12:35:09;;;;;;;18.90;11.75;;;26.40;44.50;;;;;;5009681;28;20037;-74
2023/12/12 12:37:39;;;;;;;23.20;12.73;;;26.60;45.20;;;;;;5009403;28;20033;-76
2023/12/12 12:40:09;;;;;;;22.73;12.57;;;27.10;44.30;;;;;;5009855;28;20034;-76
2023/12/12 12:42:38;;;;;;;19.95;12.73;;;27.00;44.00;;;;;;4992311;28;20579;-74